Time;durP1;ratioP1;P1;durP2;ratioP2;P2;SDS_P1;SDS_P2;PMS_P1;PMS_P2;Temp;Humidity;BMP_temperature;BMP_pressure;BME280_temperature;BME280_humidity;BME280_pressure;Samples;Min_cycle;Max_cycle;Signal;HPM_P1;HPM_P2
2022/09/07 00:00:12;;;;;;;13.23;8.85;;;16.90;99.90;;;;;;5048597;28;20041;-55
2022/09/07 00:02:38;;;;;;;9.65;7.90;;;16.50;99.90;;;;;;5048888;28;20393;-54
2022/09/07 00:05:04;;;;;;;13.13;9.15;;;16.80;99.90;;;;;;5048686;28;20040;-55
2022/09/07 00:07:30;;;;;;;14.85;9.15;;;16.50;99.90;;;;;;5048662;28;20103;-54
2022/09/07 00:09:56;;;;;;;15.80;8.77;;;16.60;99.90;;;;;;5048786;28;20062;-54
2022/09/07 00:12:21;;;;;;;11.68;10.25;;;16.40;99.90;;;;;;5048329;28;20233;-54
2022/09/07 00:14:47;;;;;;;10.27;8.88;;;16.40;99.90;;;;;;5048672;28;20048;-54
2022/09/07 00:17:13;;;;;;;10.40;9.32;;;16.30;99.90;;;;;;5048316;28;20049;-54
2022/09/07 00:19:38;;;;;;;9.50;8.35;;;16.40;99.90;;;;;;5046689;28;20044;-54
2022/09/07 00:22:04;;;;;;;13.07;9.27;;;16.40;99.90;;;;;;5047422;28;20045;-54
2022/09/07 00:24:30;;;;;;;13.07;9.63;;;16.40;99.90;;;;;;5047966;28;20043;-54
2022/09/07 00:26:55;;;;;;;12.32;8.88;;;16.30;99.90;;;;;;5048202;28;20056;-54
2022/09/07 00:29:21;;;;;;;9.25;8.35;;;16.30;99.90;;;;;;5046388;28;20063;-53
2022/09/07 00:31:47;;;;;;;9.70;7.90;;;16.20;99.90;;;;;;5046483;28;20455;-54
2022/09/07 00:34:12;;;;;;;11.02;8.57;;;16.30;99.90;;;;;;5047518;28;20044;-54
2022/09/07 00:36:38;;;;;;;9.00;7.93;;;16.30;99.90;;;;;;5047647;28;20045;-54
2022/09/07 00:39:04;;;;;;;10.85;7.68;;;16.30;99.90;;;;;;5047527;28;20044;-54
2022/09/07 00:41:30;;;;;;;10.23;8.88;;;16.30;99.90;;;;;;5047981;28;20067;-54
2022/09/07 00:44:15;;;;;;;8.75;7.80;;;16.40;99.90;;;;;;5048570;28;20036;-54
2022/09/07 00:46:42;;;;;;;8.65;7.68;;;16.20;99.90;;;;;;5048720;28;20360;-54
2022/09/07 00:49:13;;;;;;;11.38;7.57;;;16.20;99.90;;;;;;5047840;28;20058;-54
2022/09/07 00:51:50;;;;;;;10.65;8.20;;;16.50;99.90;;;;;;5046535;28;20458;-54
2022/09/07 00:54:25;;;;;;;11.13;8.45;;;16.20;99.90;;;;;;5047598;28;20041;-54
2022/09/07 00:56:52;;;;;;;9.35;7.80;;;16.20;99.90;;;;;;5047856;28;20041;-54
2022/09/07 00:59:22;;;;;;;16.17;9.02;;;16.20;99.90;;;;;;5047766;28;20041;-54
2022/09/07 01:01:48;;;;;;;13.10;8.88;;;16.30;99.90;;;;;;5047848;28;20106;-54
2022/09/07 01:04:14;;;;;;;10.27;9.18;;;16.20;99.90;;;;;;5046060;28;20515;-54
2022/09/07 01:06:42;;;;;;;12.13;9.25;;;16.20;99.90;;;;;;5047668;28;20055;-54
2022/09/07 01:09:14;;;;;;;11.05;9.02;;;16.20;99.90;;;;;;5047582;28;20175;-54
2022/09/07 01:11:44;;;;;;;13.30;8.70;;;16.20;99.90;;;;;;5047657;28;20029;-54
2022/09/07 01:14:14;;;;;;;11.55;8.90;;;16.20;99.90;;;;;;5047094;28;20049;-54
2022/09/07 01:17:04;;;;;;;12.50;9.65;;;16.50;99.90;;;;;;5047164;28;20482;-54
2022/09/07 01:19:48;;;;;;;13.77;10.73;;;16.20;99.90;;;;;;5047008;28;20553;-54
2022/09/07 01:22:46;;;;;;;16.42;12.05;;;16.20;99.90;;;;;;5046252;28;20499;-54
2022/09/07 01:25:34;;;;;;;16.70;12.13;;;16.10;99.90;;;;;;5023020;28;20059;-55
2022/09/07 01:28:25;;;;;;;16.13;14.48;;;16.00;99.90;;;;;;5046669;28;20040;-55
2022/09/07 01:31:06;;;;;;;24.98;15.88;;;16.00;99.90;;;;;;5046736;28;20044;-55
2022/09/07 01:33:52;;;;;;;15.90;14.25;;;16.00;99.90;;;;;;5046340;28;20097;-54
2022/09/07 01:36:33;;;;;;;22.05;15.68;;;16.00;99.90;;;;;;5046475;28;20392;-54
2022/09/07 01:39:02;;;;;;;20.88;17.13;;;15.90;99.90;;;;;;5046326;28;20045;-54
2022/09/07 01:41:34;;;;;;;17.98;14.70;;;16.00;99.90;;;;;;5046192;28;20045;-54
2022/09/07 01:44:22;;;;;;;20.75;15.15;;;16.00;99.90;;;;;;5045695;28;20136;-55
2022/09/07 01:47:16;;;;;;;18.38;14.38;;;16.00;99.90;;;;;;5046932;28;20103;-54
2022/09/07 01:49:49;;;;;;;22.88;17.00;;;16.00;99.90;;;;;;5047098;28;20051;-54
2022/09/07 01:52:24;;;;;;;18.02;14.10;;;16.10;99.90;;;;;;5046211;28;20053;-55
2022/09/07 01:55:08;;;;;;;22.25;17.65;;;16.10;99.90;;;;;;5046606;28;20045;-55
2022/09/07 01:57:42;;;;;;;17.33;15.40;;;16.00;99.90;;;;;;5046721;28;20485;-55
2022/09/07 02:00:11;;;;;;;21.15;16.35;;;16.00;99.90;;;;;;5045124;28;20171;-55
2022/09/07 02:02:47;;;;;;;30.23;19.58;;;16.10;99.90;;;;;;5045249;28;20054;-55
2022/09/07 02:05:30;;;;;;;48.10;23.65;;;16.00;99.90;;;;;;5046326;28;20483;-56
2022/09/07 02:08:01;;;;;;;26.73;18.30;;;16.00;99.90;;;;;;5046354;28;20052;-55
2022/09/07 02:10:37;;;;;;;26.07;18.43;;;16.00;99.90;;;;;;5045882;28;20048;-55
2022/09/07 02:13:11;;;;;;;58.20;24.13;;;16.00;99.90;;;;;;5045977;28;20053;-55
2022/09/07 02:15:54;;;;;;;41.80;23.27;;;16.00;99.90;;;;;;5046543;28;20053;-55
2022/09/07 02:18:23;;;;;;;56.33;25.75;;;16.00;99.90;;;;;;5045564;28;20117;-55
2022/09/07 02:20:53;;;;;;;36.53;24.27;;;16.00;99.90;;;;;;5046211;28;20041;-55
2022/09/07 02:23:27;;;;;;;31.58;22.95;;;16.00;99.90;;;;;;5046402;28;20051;-55
2022/09/07 02:26:02;;;;;;;99.57;34.50;;;15.90;99.90;;;;;;5046406;28;20476;-55
2022/09/07 02:28:32;;;;;;;85.65;32.55;;;16.30;99.90;;;;;;5046248;28;20080;-55
2022/09/07 02:30:58;;;;;;;50.90;27.33;;;16.00;99.90;;;;;;5045973;28;20045;-55
2022/09/07 02:33:23;;;;;;;60.20;28.55;;;15.90;99.90;;;;;;5044692;28;20404;-55
2022/09/07 02:35:50;;;;;;;66.28;29.17;;;15.90;99.90;;;;;;5046050;28;20120;-55
2022/09/07 02:38:16;;;;;;;35.75;23.13;;;15.90;99.90;;;;;;5044005;28;20467;-55
2022/09/07 02:40:42;;;;;;;37.20;23.27;;;16.20;99.90;;;;;;5045755;28;20145;-55
2022/09/07 02:43:09;;;;;;;30.10;21.55;;;15.90;99.90;;;;;;5045883;28;20147;-55
2022/09/07 02:46:05;;;;;;;34.63;23.23;;;16.10;99.90;;;;;;5044428;28;20417;-55
2022/09/07 02:48:36;;;;;;;26.80;20.80;;;15.90;99.90;;;;;;5040400;28;20402;-55
2022/09/07 02:51:36;;;;;;;28.25;21.20;;;15.90;99.90;;;;;;5046310;28;20422;-55
2022/09/07 02:54:24;;;;;;;31.30;22.25;;;15.90;99.90;;;;;;5045473;28;20133;-55
2022/09/07 02:57:15;;;;;;;30.58;22.38;;;15.90;99.90;;;;;;5048491;28;20037;-55
2022/09/07 02:59:47;;;;;;;34.87;22.10;;;15.90;99.90;;;;;;5049863;28;20336;-55
2022/09/07 03:02:44;;;;;;;36.05;22.95;;;15.90;99.90;;;;;;5049753;28;20045;-55
2022/09/07 03:05:19;;;;;;;50.80;27.55;;;15.90;99.90;;;;;;5049796;28;20041;-55
2022/09/07 03:08:03;;;;;;;41.00;23.52;;;15.90;99.90;;;;;;5049872;28;20045;-55
2022/09/07 03:10:29;;;;;;;32.20;22.23;;;16.00;99.90;;;;;;5047914;28;20041;-55
2022/09/07 03:12:55;;;;;;;26.77;20.30;;;15.90;99.90;;;;;;5049473;28;20045;-55
2022/09/07 03:15:24;;;;;;;28.75;22.73;;;15.90;99.90;;;;;;5049539;28;20098;-55
2022/09/07 03:17:50;;;;;;;31.58;21.05;;;16.10;99.90;;;;;;5049171;28;20088;-55
2022/09/07 03:20:16;;;;;;;22.48;19.38;;;15.90;99.90;;;;;;5049624;28;20087;-55
2022/09/07 03:22:43;;;;;;;27.85;19.73;;;15.80;99.90;;;;;;5048229;28;20052;-55
2022/09/07 03:25:09;;;;;;;28.23;21.08;;;15.80;99.90;;;;;;5049580;28;20041;-55
2022/09/07 03:27:35;;;;;;;27.10;20.55;;;15.80;99.90;;;;;;5049500;28;20044;-55
2022/09/07 03:30:03;;;;;;;28.92;21.30;;;15.70;99.90;;;;;;5048348;28;20048;-55
2022/09/07 03:32:31;;;;;;;34.20;22.02;;;15.70;99.90;;;;;;5049372;28;20154;-55
2022/09/07 03:34:57;;;;;;;28.83;21.13;;;15.60;99.90;;;;;;5049678;28;20052;-55
2022/09/07 03:37:23;;;;;;;24.67;21.70;;;15.80;99.90;;;;;;5049214;28;20037;-55
2022/09/07 03:39:48;;;;;;;25.38;21.92;;;15.60;99.90;;;;;;5049495;28;20109;-55
2022/09/07 03:42:14;;;;;;;26.33;22.00;;;15.70;99.90;;;;;;5049595;28;20045;-55
2022/09/07 03:44:40;;;;;;;21.83;19.38;;;15.70;99.90;;;;;;5049151;28;20075;-55
2022/09/07 03:47:05;;;;;;;19.65;16.70;;;15.60;99.90;;;;;;5049450;28;20115;-55
2022/09/07 03:49:31;;;;;;;27.45;22.42;;;15.70;99.90;;;;;;5049159;28;20073;-55
2022/09/07 03:51:57;;;;;;;30.60;22.00;;;15.60;99.90;;;;;;5047802;28;20122;-55
2022/09/07 03:54:22;;;;;;;30.33;23.90;;;15.60;99.90;;;;;;5049329;28;20041;-55
2022/09/07 03:56:48;;;;;;;31.77;24.23;;;15.70;99.90;;;;;;5048937;28;20048;-55
2022/09/07 03:59:14;;;;;;;31.88;25.42;;;15.70;99.90;;;;;;5048550;28;20475;-55
2022/09/07 04:01:39;;;;;;;29.00;24.80;;;15.70;99.90;;;;;;5048505;28;20594;-55
2022/09/07 04:04:05;;;;;;;33.88;25.58;;;15.60;99.90;;;;;;5048730;28;20072;-55
2022/09/07 04:06:31;;;;;;;32.03;25.42;;;15.70;99.90;;;;;;5048421;28;20116;-54
2022/09/07 04:09:05;;;;;;;30.30;25.48;;;15.60;99.90;;;;;;5048197;28;20071;-55
2022/09/07 04:11:31;;;;;;;26.15;21.95;;;15.60;99.90;;;;;;5048493;28;20121;-55
2022/09/07 04:13:57;;;;;;;30.45;25.65;;;15.60;99.90;;;;;;5048412;28;20049;-55
2022/09/07 04:16:24;;;;;;;30.98;26.98;;;15.50;99.90;;;;;;5048695;28;20049;-54
2022/09/07 04:18:53;;;;;;;37.63;28.05;;;15.50;99.90;;;;;;5048018;28;20041;-55
2022/09/07 04:21:20;;;;;;;36.55;28.40;;;15.50;99.90;;;;;;5048273;28;20045;-54
2022/09/07 04:23:46;;;;;;;35.85;26.85;;;15.50;99.90;;;;;;5047729;28;20494;-55
2022/09/07 04:26:22;;;;;;;37.45;28.17;;;15.40;99.90;;;;;;5047942;28;20048;-55
2022/09/07 04:28:48;;;;;;;37.08;27.10;;;15.40;99.90;;;;;;5047851;28;20047;-55
2022/09/07 04:31:15;;;;;;;32.75;26.45;;;15.40;99.90;;;;;;5048201;28;20509;-54
2022/09/07 04:33:43;;;;;;;35.88;27.60;;;15.50;99.90;;;;;;5047603;28;20135;-54
2022/09/07 04:36:08;;;;;;;37.45;28.52;;;15.40;99.90;;;;;;5048390;28;20037;-54
2022/09/07 04:38:34;;;;;;;34.83;27.55;;;15.40;99.90;;;;;;5047859;28;20822;-55
2022/09/07 04:41:09;;;;;;;35.80;27.67;;;15.30;99.90;;;;;;5047933;28;20391;-54
2022/09/07 04:43:36;;;;;;;32.13;27.17;;;15.40;99.90;;;;;;5046025;28;20053;-55
2022/09/07 04:46:04;;;;;;;33.95;27.15;;;15.50;99.90;;;;;;5047830;28;20372;-55
2022/09/07 04:48:29;;;;;;;36.95;28.00;;;15.20;99.90;;;;;;5048420;28;20497;-55
2022/09/07 04:51:02;;;;;;;34.45;26.30;;;15.20;99.90;;;;;;5047686;28;20344;-54
2022/09/07 04:53:27;;;;;;;37.55;29.38;;;15.50;99.90;;;;;;5047774;28;20565;-54
2022/09/07 04:55:53;;;;;;;34.95;27.35;;;15.20;99.90;;;;;;5047612;28;20076;-55
2022/09/07 04:58:19;;;;;;;36.58;28.13;;;15.20;99.90;;;;;;5046191;28;20090;-55
2022/09/07 05:00:44;;;;;;;37.60;28.55;;;15.10;99.90;;;;;;5047038;28;20773;-55
2022/09/07 05:03:10;;;;;;;32.25;26.58;;;15.10;99.90;;;;;;5046132;28;20483;-55
2022/09/07 05:05:37;;;;;;;41.53;28.83;;;15.00;99.90;;;;;;5045751;28;20049;-55
2022/09/07 05:08:02;;;;;;;33.63;27.75;;;15.20;99.90;;;;;;5047479;28;20067;-54
2022/09/07 05:10:28;;;;;;;39.58;30.02;;;15.00;99.90;;;;;;5047412;28;20483;-55
2022/09/07 05:12:54;;;;;;;34.90;27.15;;;15.00;99.90;;;;;;5046889;28;20091;-55
2022/09/07 05:15:19;;;;;;;43.67;29.75;;;15.20;99.90;;;;;;5047470;28;20068;-55
2022/09/07 05:17:45;;;;;;;37.47;29.10;;;15.10;99.90;;;;;;5046925;28;20089;-54
2022/09/07 05:20:11;;;;;;;45.35;31.48;;;15.00;99.90;;;;;;5046577;28;20114;-55
2022/09/07 05:22:39;;;;;;;45.28;30.77;;;15.10;99.90;;;;;;5046907;28;20102;-55
2022/09/07 05:25:06;;;;;;;54.03;34.78;;;15.30;99.90;;;;;;5046804;28;20548;-55
2022/09/07 05:27:32;;;;;;;51.95;32.95;;;15.10;99.90;;;;;;5045200;28;20506;-55
2022/09/07 05:29:58;;;;;;;40.72;30.05;;;15.20;99.90;;;;;;5046197;28;20091;-54
2022/09/07 05:32:23;;;;;;;39.40;29.23;;;15.60;99.90;;;;;;5046679;28;20372;-54
2022/09/07 05:34:49;;;;;;;54.83;32.97;;;15.50;99.90;;;;;;5045018;28;20040;-55
2022/09/07 05:37:15;;;;;;;45.22;31.90;;;15.50;99.90;;;;;;5046815;28;20045;-54
2022/09/07 05:39:41;;;;;;;51.72;33.45;;;15.30;99.90;;;;;;5046530;28;20045;-55
2022/09/07 05:42:06;;;;;;;44.38;30.85;;;15.50;99.90;;;;;;5046526;28;20471;-55
2022/09/07 05:44:32;;;;;;;37.08;30.45;;;15.30;99.90;;;;;;5045380;28;20209;-55
2022/09/07 05:46:58;;;;;;;40.50;30.98;;;15.60;99.90;;;;;;5046280;28;20543;-55
2022/09/07 05:49:23;;;;;;;32.95;28.05;;;15.40;99.90;;;;;;5046189;28;20079;-55
2022/09/07 05:51:49;;;;;;;40.20;29.60;;;15.40;99.90;;;;;;5046172;28;20029;-55
2022/09/07 05:54:15;;;;;;;43.45;31.42;;;15.40;99.90;;;;;;5046158;28;20044;-54
2022/09/07 05:56:41;;;;;;;89.97;39.60;;;15.40;99.90;;;;;;5045952;28;20049;-55
2022/09/07 05:59:06;;;;;;;41.38;30.20;;;15.40;99.90;;;;;;5045066;28;20379;-55
2022/09/07 06:01:34;;;;;;;41.33;29.65;;;15.50;99.90;;;;;;5045247;28;20049;-55
2022/09/07 06:03:59;;;;;;;33.13;28.10;;;15.80;99.90;;;;;;5046322;28;20487;-55
2022/09/07 06:06:25;;;;;;;35.35;28.65;;;15.30;99.90;;;;;;5047157;28;20043;-54
2022/09/07 06:08:52;;;;;;;39.80;29.23;;;15.70;99.90;;;;;;5047393;28;20044;-54
2022/09/07 06:11:23;;;;;;;35.17;28.90;;;15.60;99.90;;;;;;5045540;28;20128;-54
2022/09/07 06:13:49;;;;;;;30.35;26.85;;;16.00;99.90;;;;;;5046897;28;20095;-55
2022/09/07 06:16:17;;;;;;;32.83;27.00;;;15.90;99.90;;;;;;5046271;28;20376;-54
2022/09/07 06:18:44;;;;;;;35.03;29.30;;;15.60;99.90;;;;;;5044661;28;20061;-55
2022/09/07 06:21:21;;;;;;;34.42;29.95;;;15.70;99.90;;;;;;5044843;28;20081;-54
2022/09/07 06:23:48;;;;;;;31.52;28.08;;;15.80;99.90;;;;;;5046115;28;20049;-55
2022/09/07 06:26:15;;;;;;;31.40;27.83;;;16.00;99.90;;;;;;5046157;28;20076;-54
2022/09/07 06:28:47;;;;;;;35.55;29.92;;;16.70;99.90;;;;;;5045846;28;20044;-54
2022/09/07 06:31:16;;;;;;;33.00;27.83;;;16.10;99.90;;;;;;5050106;28;20056;-54
2022/09/07 06:33:43;;;;;;;29.88;26.75;;;16.20;99.90;;;;;;5051771;28;20484;-54
2022/09/07 06:36:20;;;;;;;34.17;29.58;;;16.20;99.90;;;;;;5052288;28;20134;-55
2022/09/07 06:38:46;;;;;;;31.30;28.17;;;16.30;99.90;;;;;;5052104;28;20037;-54
2022/09/07 06:41:13;;;;;;;32.08;28.63;;;16.50;99.90;;;;;;5051848;28;20487;-54
2022/09/07 06:43:39;;;;;;;28.95;25.85;;;16.60;99.90;;;;;;5051989;28;20490;-54
2022/09/07 06:46:05;;;;;;;27.40;24.88;;;16.70;99.90;;;;;;5051188;28;20553;-54
2022/09/07 06:48:32;;;;;;;29.75;26.50;;;16.80;99.90;;;;;;5052427;28;20049;-54
2022/09/07 06:51:08;;;;;;;32.10;26.48;;;17.00;99.90;;;;;;5052449;28;20041;-54
2022/09/07 06:53:35;;;;;;;28.70;25.75;;;17.20;99.90;;;;;;5052569;28;20049;-54
2022/09/07 06:56:05;;;;;;;25.02;22.50;;;17.30;99.90;;;;;;5051682;28;20037;-54
2022/09/07 06:58:31;;;;;;;26.08;23.48;;;17.60;99.90;;;;;;5052554;28;20044;-54
2022/09/07 07:00:57;;;;;;;25.33;22.65;;;17.60;99.90;;;;;;5052459;28;20041;-54
2022/09/07 07:03:23;;;;;;;24.98;22.65;;;17.70;99.90;;;;;;5051386;28;20434;-54
2022/09/07 07:05:55;;;;;;;25.70;22.83;;;17.80;99.90;;;;;;5052255;28;20049;-54
2022/09/07 07:08:23;;;;;;;22.90;20.70;;;17.80;99.90;;;;;;5052951;28;20132;-52
2022/09/07 07:10:49;;;;;;;24.05;21.63;;;17.90;99.90;;;;;;5051712;28;20055;-54
2022/09/07 07:13:15;;;;;;;26.63;23.83;;;17.80;99.90;;;;;;5051843;28;20037;-54
2022/09/07 07:15:41;;;;;;;25.42;22.75;;;17.90;99.90;;;;;;5052047;28;20371;-55
2022/09/07 07:18:07;;;;;;;22.77;20.48;;;17.90;99.90;;;;;;5051537;28;20061;-55
2022/09/07 07:20:37;;;;;;;24.00;21.55;;;18.00;99.90;;;;;;5051997;28;20545;-54
2022/09/07 07:23:05;;;;;;;21.92;19.75;;;17.80;99.90;;;;;;5052113;28;20178;-55
2022/09/07 07:25:35;;;;;;;21.23;19.02;;;17.70;99.90;;;;;;5051844;28;20052;-54
2022/09/07 07:28:02;;;;;;;21.52;19.58;;;17.60;99.90;;;;;;5052565;28;20354;-54
2022/09/07 07:30:28;;;;;;;21.38;19.17;;;17.60;99.90;;;;;;5052038;28;20037;-54
2022/09/07 07:32:54;;;;;;;21.40;19.35;;;17.50;99.90;;;;;;5051606;28;20048;-54
2022/09/07 07:35:21;;;;;;;21.75;19.50;;;17.50;99.90;;;;;;5051581;28;20044;-52
2022/09/07 07:37:47;;;;;;;22.52;20.33;;;17.60;99.90;;;;;;5052341;28;20080;-54
2022/09/07 07:40:14;;;;;;;23.63;20.35;;;17.60;99.90;;;;;;5051731;28;20072;-53
2022/09/07 07:42:41;;;;;;;20.13;18.13;;;17.60;99.90;;;;;;5047664;28;20053;-55
2022/09/07 07:45:09;;;;;;;20.38;18.23;;;17.60;99.90;;;;;;5048828;28;20053;-54
2022/09/07 07:47:35;;;;;;;21.23;19.13;;;17.60;99.90;;;;;;5048577;28;20045;-54
2022/09/07 07:50:04;;;;;;;20.77;18.63;;;17.70;99.90;;;;;;5048525;28;20041;-54
2022/09/07 07:52:38;;;;;;;20.83;18.73;;;17.80;99.90;;;;;;5047036;28;20053;-54
2022/09/07 07:55:05;;;;;;;21.30;19.10;;;17.90;99.90;;;;;;5048650;28;20037;-54
2022/09/07 07:57:31;;;;;;;21.38;19.20;;;17.80;99.90;;;;;;5049190;28;20110;-54
2022/09/07 07:59:57;;;;;;;22.35;19.35;;;17.90;99.90;;;;;;5049091;28;20045;-54
2022/09/07 08:02:23;;;;;;;22.35;18.45;;;17.90;99.90;;;;;;5048496;28;20506;-54
2022/09/07 08:04:49;;;;;;;21.15;18.50;;;17.90;99.90;;;;;;5048807;28;20581;-53
2022/09/07 08:07:15;;;;;;;21.95;19.75;;;18.00;99.90;;;;;;5048050;28;20045;-54
2022/09/07 08:09:43;;;;;;;21.95;19.88;;;18.20;99.90;;;;;;5048306;28;20100;-54
2022/09/07 08:12:12;;;;;;;20.30;18.27;;;18.10;99.90;;;;;;5047891;28;20351;-54
2022/09/07 08:14:41;;;;;;;18.92;17.05;;;18.10;99.90;;;;;;5048212;28;20112;-54
2022/09/07 08:17:12;;;;;;;21.40;19.10;;;18.20;99.90;;;;;;5047867;28;20060;-55
2022/09/07 08:19:38;;;;;;;21.27;19.02;;;18.20;99.90;;;;;;5048507;28;20483;-54
2022/09/07 08:22:04;;;;;;;20.27;18.17;;;18.30;99.90;;;;;;5048009;28;20041;-54
2022/09/07 08:24:31;;;;;;;22.85;18.90;;;18.30;99.90;;;;;;5048117;28;20049;-54
2022/09/07 08:26:57;;;;;;;20.65;18.63;;;18.30;99.90;;;;;;5048322;28;20045;-54
2022/09/07 08:29:23;;;;;;;20.92;18.88;;;18.40;99.90;;;;;;5047386;28;20036;-53
2022/09/07 08:31:49;;;;;;;20.95;18.55;;;18.40;99.90;;;;;;5047844;28;20242;-55
2022/09/07 08:34:14;;;;;;;21.88;19.23;;;18.50;99.90;;;;;;5047295;28;20047;-54
2022/09/07 08:36:40;;;;;;;19.23;17.23;;;18.50;99.90;;;;;;5047575;28;20048;-54
2022/09/07 08:39:05;;;;;;;21.35;19.08;;;18.80;99.90;;;;;;5047561;28;20044;-55
2022/09/07 08:41:55;;;;;;;20.83;18.60;;;18.80;99.90;;;;;;5048015;28;20036;-54
2022/09/07 08:44:33;;;;;;;21.42;19.08;;;18.80;99.90;;;;;;5047153;28;20040;-54
2022/09/07 08:47:24;;;;;;;22.27;20.02;;;18.90;99.90;;;;;;5047524;28;20524;-54
2022/09/07 08:50:08;;;;;;;20.75;18.67;;;18.90;99.90;;;;;;5047716;28;20049;-54
2022/09/07 08:52:55;;;;;;;23.65;19.85;;;19.00;99.90;;;;;;5047790;28;20435;-54
2022/09/07 08:55:48;;;;;;;21.42;19.23;;;19.20;99.90;;;;;;5048121;28;20451;-54
2022/09/07 08:58:30;;;;;;;23.58;21.27;;;19.30;99.90;;;;;;5046919;28;20480;-54
2022/09/07 09:00:57;;;;;;;22.98;20.58;;;19.60;99.90;;;;;;5047499;28;20171;-55
2022/09/07 09:03:28;;;;;;;23.13;20.73;;;;;;;;;;5046789;28;20049;-55
2022/09/07 09:06:11;;;;;;;23.00;20.60;;;20.00;99.90;;;;;;5046929;28;20066;-55
2022/09/07 09:08:43;;;;;;;22.67;20.40;;;20.30;99.90;;;;;;5047400;28;20045;-54
2022/09/07 09:11:13;;;;;;;23.10;20.70;;;20.40;99.90;;;;;;5047164;28;20116;-54
2022/09/07 09:14:01;;;;;;;25.10;19.20;;;20.50;99.90;;;;;;5047045;28;20432;-55
2022/09/07 09:16:36;;;;;;;22.65;20.45;;;20.70;99.90;;;;;;5047040;28;20045;-55
2022/09/07 09:19:19;;;;;;;22.65;20.35;;;20.80;99.90;;;;;;5046864;28;20049;-55
2022/09/07 09:21:45;;;;;;;22.27;19.52;;;20.90;99.90;;;;;;5046481;28;20044;-55
2022/09/07 09:24:18;;;;;;;20.52;18.40;;;21.00;99.90;;;;;;5045106;28;20092;-54
2022/09/07 09:26:53;;;;;;;21.25;19.25;;;21.00;99.90;;;;;;5046952;28;20360;-54
2022/09/07 09:29:20;;;;;;;20.75;18.70;;;21.20;99.90;;;;;;5046238;28;20546;-55
2022/09/07 09:31:46;;;;;;;20.38;18.17;;;21.50;99.90;;;;;;5046567;28;20509;-55
2022/09/07 09:34:19;;;;;;;18.17;16.38;;;21.70;99.90;;;;;;5046446;28;20049;-55
2022/09/07 09:36:54;;;;;;;20.00;18.02;;;22.00;99.90;;;;;;5046527;28;20045;-55
2022/09/07 09:39:35;;;;;;;17.60;15.98;;;22.50;99.90;;;;;;5046342;28;20048;-55
2022/09/07 09:42:10;;;;;;;17.98;16.08;;;23.10;99.90;;;;;;5046360;28;20051;-56
2022/09/07 09:44:37;;;;;;;17.60;15.68;;;23.40;99.90;;;;;;5046332;28;20052;-56
2022/09/07 09:47:05;;;;;;;15.88;14.02;;;23.60;99.90;;;;;;5046031;28;20395;-56
2022/09/07 09:49:37;;;;;;;15.43;13.93;;;24.20;99.90;;;;;;5046879;28;20052;-56
2022/09/07 09:52:11;;;;;;;13.70;12.50;;;24.80;99.90;;;;;;5046681;28;20483;-56
2022/09/07 09:54:40;;;;;;;13.23;12.00;;;24.90;99.90;;;;;;5046640;28;20064;-56
2022/09/07 09:57:15;;;;;;;13.25;12.05;;;25.00;99.90;;;;;;5046456;28;20080;-55
2022/09/07 09:59:41;;;;;;;12.93;11.63;;;24.90;99.90;;;;;;5046475;28;20052;-56
2022/09/07 10:02:25;;;;;;;11.63;10.43;;;24.90;99.90;;;;;;5046130;28;20130;-56
2022/09/07 10:04:50;;;;;;;11.73;10.63;;;24.90;99.90;;;;;;5046104;28;20040;-56
2022/09/07 10:07:24;;;;;;;12.07;10.95;;;24.80;99.90;;;;;;5046343;28;20387;-56
2022/09/07 10:09:54;;;;;;;10.65;9.65;;;24.70;99.90;;;;;;5046432;28;20049;-56
2022/09/07 10:12:33;;;;;;;11.18;10.00;;;24.90;99.90;;;;;;5044265;28;20490;-56
2022/09/07 10:15:01;;;;;;;12.52;10.70;;;24.80;99.90;;;;;;5045855;28;20040;-55
2022/09/07 10:17:33;;;;;;;10.98;9.98;;;24.60;99.90;;;;;;5045254;28;20053;-54
2022/09/07 10:20:28;;;;;;;11.23;10.10;;;24.20;99.90;;;;;;5046247;28;20048;-55
2022/09/07 10:22:54;;;;;;;11.05;10.05;;;24.10;99.90;;;;;;5042291;28;20063;-55
2022/09/07 10:25:32;;;;;;;11.82;7.78;;;24.00;99.90;;;;;;5046259;28;20041;-55
2022/09/07 10:28:14;;;;;;;10.40;9.45;;;24.10;99.90;;;;;;5045821;28;20049;-55
2022/09/07 10:31:11;;;;;;;10.60;9.50;;;24.00;99.90;;;;;;5045784;28;20052;-55
2022/09/07 10:34:07;;;;;;;9.90;8.90;;;24.10;99.90;;;;;;5045914;28;20088;-55
2022/09/07 10:36:43;;;;;;;9.50;8.60;;;24.00;99.90;;;;;;5045435;28;20102;-55
2022/09/07 10:39:16;;;;;;;8.98;7.68;;;23.90;99.90;;;;;;5045836;28;20112;-55
2022/09/07 10:41:54;;;;;;;11.05;9.05;;;23.70;99.90;;;;;;5044686;28;20049;-55
2022/09/07 10:44:29;;;;;;;9.48;8.13;;;23.60;99.90;;;;;;5044674;28;20485;-54
2022/09/07 10:47:21;;;;;;;9.15;8.25;;;23.50;99.90;;;;;;5046015;28;20487;-55
2022/09/07 10:50:02;;;;;;;9.40;8.02;;;23.30;99.90;;;;;;5045092;28;20064;-55
2022/09/07 10:52:34;;;;;;;9.07;7.50;;;23.30;99.90;;;;;;5043734;28;20045;-54
2022/09/07 10:55:06;;;;;;;9.48;8.32;;;23.40;99.90;;;;;;5045645;28;20041;-55
2022/09/07 10:58:04;;;;;;;7.90;7.20;;;23.40;99.90;;;;;;5045338;28;20396;-55
2022/09/07 11:00:50;;;;;;;9.52;8.00;;;23.40;99.90;;;;;;5045440;28;20056;-55
2022/09/07 11:03:51;;;;;;;8.05;6.80;;;23.30;99.90;;;;;;5045572;28;20037;-54
2022/09/07 11:06:40;;;;;;;7.10;6.35;;;23.20;99.90;;;;;;5043723;28;20134;-54
2022/09/07 11:09:27;;;;;;;6.47;5.95;;;23.10;99.90;;;;;;5045596;28;20331;-55
2022/09/07 11:12:17;;;;;;;7.13;6.18;;;23.20;99.90;;;;;;5045632;28;20052;-55
2022/09/07 11:14:49;;;;;;;5.18;4.68;;;23.50;99.90;;;;;;5045647;28;20128;-55
2022/09/07 11:17:20;;;;;;;4.85;4.30;;;23.90;99.90;;;;;;5045549;28;20538;-55
2022/09/07 11:20:09;;;;;;;6.47;4.95;;;24.00;99.90;;;;;;5049344;28;20403;-55
2022/09/07 11:22:40;;;;;;;5.30;4.65;;;24.20;99.90;;;;;;5049546;28;20044;-54
2022/09/07 11:25:27;;;;;;;5.05;3.92;;;24.30;99.90;;;;;;5048983;28;20490;-55
2022/09/07 11:28:00;;;;;;;5.25;3.90;;;24.30;99.90;;;;;;5049020;28;20056;-54
2022/09/07 11:30:30;;;;;;;6.00;3.55;;;24.30;99.90;;;;;;5048930;28;20033;-54
2022/09/07 11:33:15;;;;;;;5.00;3.33;;;24.30;99.90;;;;;;5049108;28;20083;-55
2022/09/07 11:36:01;;;;;;;5.78;4.25;;;24.30;99.90;;;;;;5049020;28;20041;-54
2022/09/07 11:38:34;;;;;;;3.80;3.03;;;24.40;99.90;;;;;;5049046;28;20056;-54
2022/09/07 11:41:24;;;;;;;4.40;2.85;;;24.40;99.90;;;;;;5049077;28;20479;-55
2022/09/07 11:44:04;;;;;;;3.67;2.60;;;24.40;99.90;;;;;;5049061;28;20455;-55
2022/09/07 11:46:43;;;;;;;3.15;2.40;;;24.50;99.90;;;;;;5048706;28;20047;-55
2022/09/07 11:49:24;;;;;;;5.00;2.65;;;24.40;99.90;;;;;;5048833;28;20358;-55
2022/09/07 11:52:00;;;;;;;4.60;2.92;;;24.60;99.90;;;;;;5049069;28;20422;-54
2022/09/07 11:54:42;;;;;;;6.38;2.78;;;24.80;99.90;;;;;;5048377;28;20123;-55
2022/09/07 11:57:20;;;;;;;4.80;2.35;;;24.90;99.10;;;;;;5048051;28;20080;-55
2022/09/07 12:00:09;;;;;;;3.53;2.42;;;25.00;97.80;;;;;;5048192;28;20036;-55
2022/09/07 12:03:12;;;;;;;3.83;2.40;;;25.10;99.20;;;;;;5048216;28;20041;-55
2022/09/07 12:06:07;;;;;;;3.17;1.73;;;25.10;99.10;;;;;;5047900;28;20506;-55
2022/09/07 12:09:01;;;;;;;3.45;1.88;;;25.10;99.10;;;;;;5048287;28;20045;-54
2022/09/07 12:11:35;;;;;;;2.58;2.08;;;25.00;98.50;;;;;;5048531;28;20051;-55
2022/09/07 12:14:32;;;;;;;2.53;1.50;;;24.80;98.90;;;;;;5047841;28;20052;-55
2022/09/07 12:17:40;;;;;;;3.08;2.00;;;24.70;99.10;;;;;;5047946;28;20658;-55
2022/09/07 12:20:20;;;;;;;2.97;1.80;;;24.90;98.80;;;;;;5046714;28;20151;-54
2022/09/07 12:23:15;;;;;;;2.33;1.25;;;24.90;98.90;;;;;;5047561;28;20048;-55
2022/09/07 12:25:43;;;;;;;2.88;1.98;;;24.90;99.00;;;;;;5042656;28;20057;-54
2022/09/07 12:28:24;;;;;;;4.05;2.55;;;24.70;99.30;;;;;;5047002;28;20084;-53
2022/09/07 12:31:04;;;;;;;3.50;1.73;;;24.50;98.60;;;;;;5047900;28;20045;-53
2022/09/07 12:33:37;;;;;;;2.22;1.40;;;24.50;99.30;;;;;;5047810;28;20300;-54
2022/09/07 12:36:24;;;;;;;2.70;1.35;;;24.60;99.60;;;;;;5048200;28;20120;-54
2022/09/07 12:39:19;;;;;;;3.65;1.90;;;24.60;99.20;;;;;;5046633;28;20116;-55
2022/09/07 12:41:48;;;;;;;3.97;1.50;;;24.40;98.60;;;;;;5047882;28;20045;-55
2022/09/07 12:44:19;;;;;;;3.17;1.55;;;24.40;99.10;;;;;;5046914;28;20134;-55
2022/09/07 12:46:47;;;;;;;4.40;2.13;;;24.40;99.10;;;;;;5047346;28;20044;-55
2022/09/07 12:49:31;;;;;;;2.70;1.30;;;24.50;99.30;;;;;;5047858;28;20275;-55
2022/09/07 12:52:08;;;;;;;2.72;1.35;;;24.50;99.40;;;;;;5045603;28;20049;-55
2022/09/07 12:54:59;;;;;;;4.38;2.10;;;24.70;98.10;;;;;;5047059;28;20048;-55
2022/09/07 12:57:52;;;;;;;5.50;2.20;;;24.70;98.30;;;;;;5047605;28;20045;-55
2022/09/07 13:00:39;;;;;;;3.85;1.83;;;24.50;98.40;;;;;;5047453;28;20083;-55